• Join FlightAware (Why Join?)
  • Login
  • US Flag 
09:25AM EDT


 

Airport Tracker/Info


-or-


 

Live Flight TrackerFlight Track Log ✈ ELY4 ✈ 02-May-2012 ✈ KJFK - LLBG / TLV

Flight Track Log - Related Links

Times and Time Zones

All times are in EDT time to prevent confusion due to time zone crossing. See the ELY4 flight status page for this flight to view local times or setup timezone preferences in your user account.

Time Position Orientation Groundspeed Altitude Reporting Facility
EDT Latitude Longitude Course Direction KTS MPH feet Rate Location/Type
12:25PM 40.6667 -73.7500 84° East 177 204 1,300  Level New York TRACON
12:26PM 40.6747 -73.6442 120° Southeast 194 223 2,600 1,200 Climbing Boston Center
12:27PM 40.6381 -73.5614 119° Southeast 221 254 4,400 2,400 Climbing Boston Center
12:28PM 40.5800 -73.4248 121° Southeast 302 348 8,100 2,880 Climbing FlightAware ADS-B
12:29PM 40.5688 -73.4003 117° Southeast 310 357 8,800 2,460 Climbing FlightAware ADS-B
12:29PM 40.5564 -73.3683 106° East 318 366 9,500 2,220 Climbing FlightAware ADS-B
12:29PM 40.5539 -73.3570 99° East 322 371 9,700 1,800 Climbing FlightAware ADS-B
12:29PM 40.5532 -73.3512 78° East 324 373 9,800 1,380 Climbing FlightAware ADS-B
12:30PM 40.5642 -73.2831 72° East 350 403 10,600 1,380 Climbing FlightAware ADS-B
12:30PM 40.5823 -73.2098 73° East 386 444 11,400 1,800 Climbing FlightAware ADS-B
12:31PM 40.6003 -73.1344 73° East 399 459 12,600 2,280 Climbing FlightAware ADS-B
12:31PM 40.6196 -73.0519 73° East 409 471 14,000 2,340 Climbing FlightAware ADS-B
12:33PM 40.6643 -72.8610 73° East 416 479 17,100 2,040 Climbing FlightAware ADS-B
12:34PM 40.7081 -72.6672 73° East 423 487 19,700 1,920 Climbing Boston Center
12:35PM 40.7478 -72.4922 73° East 436 502 21,900 1,980 Climbing Boston Center
12:36PM 40.7853 -72.3331 73° East 450 518 23,700 1,500 Climbing Boston Center
12:37PM 40.8225 -72.1686 74° East 456 525 25,000 1,320 Climbing Boston Center
12:38PM 40.8594 -72.0011 71° East 456 525 26,400 1,320 Climbing Boston Center
12:39PM 40.8942 -71.8636 74° East 454 522 27,700 1,260 Climbing Boston Center
12:40PM 40.9308 -71.6928 76° East 460 529 29,000 1,200 Climbing Boston Center
12:41PM 40.9689 -71.4917 72° East 488 562 30,100 1,140 Climbing Boston Center
12:42PM 41.0050 -71.3428 73° East 487 560 31,300 1,260 Climbing Boston Center
12:43PM 41.0447 -71.1658 75° East 487 560 32,700 840 Climbing Boston Center
12:44PM 41.0822 -70.9833 74° East 493 567 33,000 120 Climbing Boston Center
12:45PM 41.1194 -70.8089 74° East 493 567 33,000  Level Boston Center
12:46PM 41.1564 -70.6344 75° East 493 567 33,000  Level Boston Center
12:47PM 41.1911 -70.4650 75° East 488 562 33,000  Level Boston Center
12:49PM 41.2731 -70.0603 90° East 472 543 33,000  Level New York Center
12:50PM 41.2739 -69.8808 93° East 472 543 33,000  Level New York Center
12:51PM 41.2664 -69.6989 93° East 476 548 33,000  Level New York Center
12:52PM 41.2583 -69.5167 93° East 487 560 33,000  Level New York Center
12:53PM 41.2503 -69.3350 93° East 492 566 33,000  Level New York Center
12:54PM 41.2417 -69.1503 94° East 497 572 33,000  Level New York Center
12:55PM 41.2328 -68.9656 89° East 497 572 33,000  Level New York Center
12:56PM 41.2333 -68.9333 96° East 515 593 33,000  Level New York Oceanic (ODAPS)
12:56PM 41.2217 -68.7783 94° East 502 578 33,000  Level New York Center
12:57PM 41.2122 -68.5911 94° East 502 578 33,000  Level New York Center
12:58PM 41.2025 -68.4097 94° East 502 578 33,000  Level New York Center
12:59PM 41.1928 -68.2281 96° East 495 570 33,000  Level New York Center
01:00PM 41.1786 -68.0603 87° East 495 570 33,000  Level New York Center
01:01PM 41.1833 -67.9333 97° East 509 586 33,000  Level New York Oceanic (ODAPS)
01:02PM 41.1614 -67.6892 95° East 495 570 33,000  Level New York Center
01:03PM 41.1478 -67.4858 95° East 500 575 33,000  Level New York Center
01:04PM 41.1344 -67.2992 96° East 500 575 33,000  Level New York Center
01:05PM 41.1186 -67.1128 95° East 500 575 33,000  Level New York Center
01:06PM 41.1167 -67.0833 360° North 611 703 33,000  Level New York Oceanic (ODAPS)
01:06PM 41.1167 -67.0833 89° East 520 598 33,000  Level New York Oceanic (ODAPS)
01:15PM 41.1333 -65.2833 90° East 511 588 33,000  Level New York Oceanic (ODAPS)
01:29PM 41.1000 -62.6500 92° East 520 598 33,000  Level New York Oceanic (ODAPS)
01:43PM 41.0000 -60.0000 360° North 519 597 33,000  Level New York Oceanic (ODAPS)
01:43PM 41.0000 -60.0000 88° East 518 596 33,000  Level New York Oceanic (ODAPS)
01:57PM 41.0333 -57.4167 90° East 507 583 33,000  Level New York Oceanic (ODAPS)
02:10PM 41.0000 -55.0000 90° East 520 598 33,000  Level New York Oceanic (ODAPS)
02:10PM 41.0000 -54.8333 88° East 521 600 33,000  Level New York Oceanic (ODAPS)
02:24PM 41.0333 -52.2000 90° East 521 600 33,000  Level New York Oceanic (ODAPS)
02:36PM 41.0000 -50.0000 87° East 529 609 33,000  Level New York Oceanic (ODAPS)
02:38PM 41.0167 -49.5333 87° East 529 609 33,000  Level New York Oceanic (ODAPS)
02:52PM 41.1000 -46.8167 89° East 534 615 33,000  Level New York Oceanic (ODAPS)
03:06PM 41.1000 -44.0667 91° East 534 615 33,000  Level New York Oceanic (ODAPS)
03:20PM 41.0500 -41.3833 91° East 527 606 33,000  Level New York Oceanic (ODAPS)
03:28PM 41.0099 -39.7646 87° East 527 606 33,000  Level FlightAware Transoceanic
03:29PM 41.0176 -39.5763 87° East 527 606 33,000  Level FlightAware Transoceanic
03:30PM 41.0249 -39.3879 87° East 527 606 33,000  Level FlightAware Transoceanic
03:31PM 41.0319 -39.1995 87° East 527 606 33,000  Level FlightAware Transoceanic
03:32PM 41.0386 -39.0110 87° East 527 606 33,000  Level FlightAware Transoceanic
03:33PM 41.0450 -38.8225 87° East 527 606 33,000  Level FlightAware Transoceanic
03:34PM 41.0511 -38.6340 88° East 527 606 33,000  Level FlightAware Transoceanic
03:35PM 41.0568 -38.4454 88° East 527 606 33,000  Level FlightAware Transoceanic
03:36PM 41.0623 -38.2568 88° East 527 606 33,000  Level FlightAware Transoceanic
03:37PM 41.0675 -38.0681 88° East 527 606 33,000  Level FlightAware Transoceanic
03:38PM 41.0723 -37.8795 88° East 527 606 33,000  Level FlightAware Transoceanic
03:39PM 41.0769 -37.6908 88° East 527 606 33,000  Level FlightAware Transoceanic
03:40PM 41.0811 -37.5021 88° East 527 606 33,000  Level FlightAware Transoceanic
03:41PM 41.0850 -37.3133 88° East 527 606 33,000  Level FlightAware Transoceanic
03:42PM 41.0887 -37.1245 89° East 527 606 33,000  Level FlightAware Transoceanic
03:43PM 41.0920 -36.9358 89° East 527 606 33,000  Level FlightAware Transoceanic
03:44PM 41.0950 -36.7470 89° East 527 606 33,000  Level FlightAware Transoceanic
03:45PM 41.0977 -36.5582 89° East 527 606 33,000  Level FlightAware Transoceanic
03:46PM 41.1001 -36.3693 89° East 527 606 33,000  Level FlightAware Transoceanic
03:47PM 41.1022 -36.1805 89° East 527 606 33,000  Level FlightAware Transoceanic
03:48PM 41.1039 -35.9916 89° East 527 606 33,000  Level FlightAware Transoceanic
03:49PM 41.1054 -35.8027 89° East 527 606 33,000  Level FlightAware Transoceanic
03:50PM 41.1066 -35.6139 90° East 527 606 33,000  Level FlightAware Transoceanic
03:51PM 41.1074 -35.4250 90° East 527 606 33,000  Level FlightAware Transoceanic
03:52PM 41.1079 -35.2361 90° East 527 606 33,000  Level FlightAware Transoceanic
03:53PM 41.1082 -35.0472 90° East 527 606 33,000  Level FlightAware Transoceanic
03:54PM 41.1081 -34.8583 90° East 527 606 33,000  Level FlightAware Transoceanic
03:55PM 41.1077 -34.6694 90° East 527 606 33,000  Level FlightAware Transoceanic
03:56PM 41.1070 -34.4806 90° East 527 606 33,000  Level FlightAware Transoceanic
03:57PM 41.1060 -34.2917 90° East 527 606 33,000  Level FlightAware Transoceanic
03:58PM 41.1047 -34.1028 91° East 527 606 33,000  Level FlightAware Transoceanic
03:59PM 41.1031 -33.9140 91° East 527 606 33,000  Level FlightAware Transoceanic
04:00PM 41.1012 -33.7251 91° East 527 606 33,000  Level FlightAware Transoceanic
04:01PM 41.0989 -33.5363 91° East 527 606 33,000  Level FlightAware Transoceanic
04:02PM 41.0964 -33.3474 91° East 527 606 33,000  Level FlightAware Transoceanic
04:03PM 41.0935 -33.1586 91° East 527 606 33,000  Level FlightAware Transoceanic
04:04PM 41.0904 -32.9698 91° East 527 606 33,000  Level FlightAware Transoceanic
04:05PM 41.0869 -32.7811 91° East 527 606 33,000  Level FlightAware Transoceanic
04:06PM 41.0831 -32.5923 92° East 527 606 33,000  Level FlightAware Transoceanic
04:07PM 41.0790 -32.4036 92° East 527 606 33,000  Level FlightAware Transoceanic
04:08PM 41.0746 -32.2149 92° East 527 606 33,000  Level FlightAware Transoceanic
04:09PM 41.0699 -32.0262 92° East 527 606 33,000  Level FlightAware Transoceanic
04:10PM 41.0649 -31.8375 92° East 527 606 33,000  Level FlightAware Transoceanic
04:11PM 41.0596 -31.6489 92° East 527 606 33,000  Level FlightAware Transoceanic
04:12PM 41.0540 -31.4603 92° East 527 606 33,000  Level FlightAware Transoceanic
04:13PM 41.0481 -31.2718 92° East 527 606 33,000  Level FlightAware Transoceanic
04:14PM 41.0418 -31.0833 93° East 527 606 33,000  Level FlightAware Transoceanic
04:15PM 41.0353 -30.8948 93° East 527 606 33,000  Level FlightAware Transoceanic
04:16PM 41.0284 -30.7063 93° East 527 606 33,000  Level FlightAware Transoceanic
04:17PM 41.0213 -30.5179 93° East 527 606 33,000  Level FlightAware Transoceanic
04:18PM 41.0138 -30.3295 93° East 527 606 33,000  Level FlightAware Transoceanic
04:19PM 41.0060 -30.1412 93° East 527 606 33,000  Level FlightAware Transoceanic
04:20PM 40.9979 -29.9617 90° East  Level FlightAware Approximate
04:21PM 40.9975 -29.7818 90° East  Level FlightAware Approximate
04:22PM 40.9968 -29.6019 90° East  Level FlightAware Approximate
04:23PM 40.9958 -29.4221 90° East  Level FlightAware Approximate
04:24PM 40.9946 -29.2422 91° East  Level FlightAware Approximate
04:25PM 40.9931 -29.0623 91° East  Level FlightAware Approximate
04:26PM 40.9913 -28.8825 91° East  Level FlightAware Approximate
04:27PM 40.9892 -28.7027 91° East  Level FlightAware Approximate
04:28PM 40.9868 -28.5229 91° East  Level FlightAware Approximate
04:29PM 40.9842 -28.3431 91° East  Level FlightAware Approximate
04:30PM 40.9813 -28.1633 91° East  Level FlightAware Approximate
04:31PM 40.9781 -27.9835 91° East  Level FlightAware Approximate
04:32PM 40.9746 -27.8037 92° East  Level FlightAware Approximate
04:33PM 40.9709 -27.6240 92° East  Level FlightAware Approximate
04:34PM 40.9668 -27.4443 92° East  Level FlightAware Approximate
04:35PM 40.9625 -27.2646 92° East  Level FlightAware Approximate
04:36PM 40.9579 -27.0849 92° East  Level FlightAware Approximate
04:37PM 40.9531 -26.9053 92° East  Level FlightAware Approximate
04:38PM 40.9479 -26.7257 92° East  Level FlightAware Approximate
04:39PM 40.9425 -26.5461 92° East  Level FlightAware Approximate
04:40PM 40.9368 -26.3665 92° East  Level FlightAware Approximate
04:41PM 40.9308 -26.1870 93° East  Level FlightAware Approximate
04:42PM 40.9246 -26.0075 93° East  Level FlightAware Approximate
04:43PM 40.9180 -25.8280 93° East  Level FlightAware Approximate
04:44PM 40.9112 -25.6486 93° East  Level FlightAware Approximate
04:45PM 40.9041 -25.4692 93° East  Level FlightAware Approximate
04:46PM 40.8967 -25.2899 93° East  Level FlightAware Approximate
04:47PM 40.8891 -25.1106 93° East  Level FlightAware Approximate
04:48PM 40.8812 -24.9313 93° East  Level FlightAware Approximate
04:49PM 40.8730 -24.7521 94° East  Level FlightAware Approximate
04:50PM 40.8645 -24.5730 94° East  Level FlightAware Approximate
04:51PM 40.8557 -24.3938 94° East  Level FlightAware Approximate
04:52PM 40.8467 -24.2148 94° East  Level FlightAware Approximate
04:53PM 40.8373 -24.0357 94° East  Level FlightAware Approximate
04:54PM 40.8278 -23.8568 94° East  Level FlightAware Approximate
04:55PM 40.8179 -23.6778 94° East  Level FlightAware Approximate
04:56PM 40.8078 -23.4990 94° East  Level FlightAware Approximate
04:57PM 40.7973 -23.3202 94° East  Level FlightAware Approximate
04:58PM 40.7866 -23.1414 95° East  Level FlightAware Approximate
04:59PM 40.7757 -22.9627 95° East  Level FlightAware Approximate
05:00PM 40.7644 -22.7840 95° East  Level FlightAware Approximate
05:01PM 40.7529 -22.6055 95° East  Level FlightAware Approximate
05:02PM 40.7411 -22.4270 95° East  Level FlightAware Approximate
05:03PM 40.7290 -22.2485 95° East  Level FlightAware Approximate
05:04PM 40.7167 -22.0701 95° East  Level FlightAware Approximate
05:05PM 40.7040 -21.8918 95° East  Level FlightAware Approximate
05:06PM 40.6912 -21.7136 96° East  Level FlightAware Approximate
05:07PM 40.6780 -21.5354 96° East  Level FlightAware Approximate
05:08PM 40.6645 -21.3573 96° East  Level FlightAware Approximate
05:09PM 40.6508 -21.1792 96° East  Level FlightAware Approximate
05:10PM 40.6368 -21.0013 96° East  Level FlightAware Approximate
05:11PM 40.6226 -20.8234 96° East  Level FlightAware Approximate
05:12PM 40.6080 -20.6456 96° East  Level FlightAware Approximate
05:13PM 40.5932 -20.4678 85° East  Level FlightAware Approximate
05:14PM 40.6040 -20.2896 86° East  Level FlightAware Approximate
05:15PM 40.6145 -20.1113 86° East  Level FlightAware Approximate
05:16PM 40.6247 -19.9330 86° East  Level FlightAware Approximate
05:17PM 40.6347 -19.7546 86° East  Level FlightAware Approximate
05:18PM 40.6444 -19.5761 86° East  Level FlightAware Approximate
05:19PM 40.6538 -19.3976 86° East  Level FlightAware Approximate
05:20PM 40.6630 -19.2191 86° East  Level FlightAware Approximate
05:21PM 40.6718 -19.0405 86° East  Level FlightAware Approximate
05:22PM 40.6804 -18.8618 86° East  Level FlightAware Approximate
05:23PM 40.6887 -18.6831 87° East  Level FlightAware Approximate
05:24PM 40.6968 -18.5044 87° East  Level FlightAware Approximate
05:25PM 40.7045 -18.3256 87° East  Level FlightAware Approximate
05:26PM 40.7120 -18.1468 87° East  Level FlightAware Approximate
05:27PM 40.7192 -17.9680 87° East  Level FlightAware Approximate
05:28PM 40.7262 -17.7891 87° East  Level FlightAware Approximate
05:29PM 40.7328 -17.6101 87° East  Level FlightAware Approximate
05:30PM 40.7392 -17.4312 87° East  Level FlightAware Approximate
05:31PM 40.7453 -17.2522 87° East  Level FlightAware Approximate
05:32PM 40.7511 -17.0731 88° East  Level FlightAware Approximate
05:33PM 40.7567 -16.8941 88° East  Level FlightAware Approximate
05:34PM 40.7620 -16.7150 88° East  Level FlightAware Approximate
05:35PM 40.7670 -16.5359 88° East  Level FlightAware Approximate
05:36PM 40.7717 -16.3567 88° East  Level FlightAware Approximate
05:37PM 40.7761 -16.1776 88° East  Level FlightAware Approximate
05:38PM 40.7803 -15.9984 88° East  Level FlightAware Approximate
05:39PM 40.7842 -15.8192 88° East  Level FlightAware Approximate
05:40PM 40.7878 -15.6399 39° Northeast  Level FlightAware Approximate
05:41PM 40.8936 -15.5275 39° Northeast  Level FlightAware Approximate
05:42PM 40.9992 -15.4146 39° Northeast  Level FlightAware Approximate
05:43PM 41.1048 -15.3014 39° Northeast  Level FlightAware Approximate
05:44PM 41.2103 -15.1879 39° Northeast  Level FlightAware Approximate
05:45PM 41.3156 -15.0740 39° Northeast  Level FlightAware Approximate
05:46PM 41.4208 -14.9597 39° Northeast  Level FlightAware Approximate
05:47PM 41.5259 -14.8450 39° Northeast  Level FlightAware Approximate
05:48PM 41.6309 -14.7300 39° Northeast  Level FlightAware Approximate
05:49PM 41.7358 -14.6146 39° Northeast  Level FlightAware Approximate
05:50PM 41.8406 -14.4988 40° Northeast  Level FlightAware Approximate
05:51PM 41.9452 -14.3826 40° Northeast  Level FlightAware Approximate
05:52PM 42.0498 -14.2661 40° Northeast  Level FlightAware Approximate
05:53PM 42.1542 -14.1491 40° Northeast  Level FlightAware Approximate
05:54PM 42.2585 -14.0318 49° Northeast  Level FlightAware Approximate
05:55PM 42.3471 -13.8928 49° Northeast  Level FlightAware Approximate
05:56PM 42.4356 -13.7534 49° Northeast  Level FlightAware Approximate
05:57PM 42.5239 -13.6136 49° Northeast  Level FlightAware Approximate
05:58PM 42.6121 -13.4734 50° Northeast  Level FlightAware Approximate
05:59PM 42.7001 -13.3328 50° Northeast  Level FlightAware Approximate
06:00PM 42.7879 -13.1918 50° Northeast  Level FlightAware Approximate
06:01PM 42.8755 -13.0505 50° Northeast  Level FlightAware Approximate
06:02PM 42.9630 -12.9087 50° Northeast  Level FlightAware Approximate
06:03PM 43.0502 -12.7665 50° Northeast  Level FlightAware Approximate
06:04PM 43.1373 -12.6239 50° Northeast  Level FlightAware Approximate
06:05PM 43.2243 -12.4809 50° Northeast  Level FlightAware Approximate
06:06PM 43.3110 -12.3375 50° Northeast  Level FlightAware Approximate
06:07PM 43.3976 -12.1936 50° Northeast  Level FlightAware Approximate
06:08PM 43.4840 -12.0494 51° Northeast  Level FlightAware Approximate
06:09PM 43.5702 -11.9048 51° Northeast  Level FlightAware Approximate
06:10PM 43.6562 -11.7597 51° Northeast  Level FlightAware Approximate
06:11PM 43.7420 -11.6142 51° Northeast  Level FlightAware Approximate
06:12PM 43.8277 -11.4684 51° Northeast  Level FlightAware Approximate
06:13PM 43.9131 -11.3220 51° Northeast  Level FlightAware Approximate
06:14PM 43.9984 -11.1753 51° Northeast  Level FlightAware Approximate
06:15PM 44.0835 -11.0282 51° Northeast  Level FlightAware Approximate
06:16PM 44.1684 -10.8806 51° Northeast  Level FlightAware Approximate
06:17PM 44.2531 -10.7326 51° Northeast  Level FlightAware Approximate
06:18PM 44.3376 -10.5842 52° Northeast  Level FlightAware Approximate
06:19PM 44.4220 -10.4353 52° Northeast  Level FlightAware Approximate
06:20PM 44.5061 -10.2860 52° Northeast  Level FlightAware Approximate
06:21PM 44.5900 -10.1363 52° Northeast  Level FlightAware Approximate
06:22PM 44.6738 -9.9861 52° Northeast  Level FlightAware Approximate
06:23PM 44.7573 -9.8356 52° Northeast  Level FlightAware Approximate
06:24PM 44.8407 -9.6845 52° Northeast  Level FlightAware Approximate
06:25PM 44.9238 -9.5331 52° Northeast  Level FlightAware Approximate
06:26PM 45.0068 -9.3812 52° Northeast  Level FlightAware Approximate
06:27PM 45.0895 -9.2289 53° Northeast  Level FlightAware Approximate
06:28PM 45.1721 -9.0761 53° Northeast  Level FlightAware Approximate
06:29PM 45.2544 -8.9229 53° Northeast  Level FlightAware Approximate
06:30PM 45.3365 -8.7692 53° Northeast  Level FlightAware Approximate
06:31PM 45.4184 -8.6151 53° Northeast  Level FlightAware Approximate
06:32PM 45.5002 -8.4605 53° Northeast  Level FlightAware Approximate
06:33PM 45.5817 -8.3055 53° Northeast  Level FlightAware Approximate
06:34PM 45.6630 -8.1501 53° Northeast  Level FlightAware Approximate
06:35PM 45.7441 -7.9942 53° Northeast  Level FlightAware Approximate
06:36PM 45.8249 -7.8378 53° Northeast  Level FlightAware Approximate
06:37PM 45.9056 -7.6810 54° Northeast  Level FlightAware Approximate
06:38PM 45.9860 -7.5237 54° Northeast  Level FlightAware Approximate
06:39PM 46.0663 -7.3660 54° Northeast  Level FlightAware Approximate
06:40PM 46.1463 -7.2078 54° Northeast  Level FlightAware Approximate
06:41PM 46.2261 -7.0491 54° Northeast  Level FlightAware Approximate
06:42PM 46.3056 -6.8900 54° Northeast  Level FlightAware Approximate
06:43PM 46.3850 -6.7305 54° Northeast  Level FlightAware Approximate
06:44PM 46.4641 -6.5704 54° Northeast  Level FlightAware Approximate
06:45PM 46.5430 -6.4099 55° Northeast  Level FlightAware Approximate
06:46PM 46.6217 -6.2490 55° Northeast  Level FlightAware Approximate
06:47PM 46.7001 -6.0876 55° Northeast  Level FlightAware Approximate
06:48PM 46.7784 -5.9257 55° Northeast  Level FlightAware Approximate
06:49PM 46.8564 -5.7633 103° East  Level FlightAware Approximate
06:50PM 46.8247 -5.5703 104° East  Level FlightAware Approximate
06:51PM 46.7927 -5.3775 104° East  Level FlightAware Approximate
06:52PM 46.7604 -5.1850 104° East  Level FlightAware Approximate
06:53PM 46.7278 -4.9927 104° East  Level FlightAware Approximate
06:54PM 46.6948 -4.8006 104° East  Level FlightAware Approximate
06:55PM 46.6616 -4.6088 104° East  Level FlightAware Approximate
06:56PM 46.6280 -4.4172 104° East  Level FlightAware Approximate
06:57PM 46.5941 -4.2258 105° East  Level FlightAware Approximate
06:58PM 46.5598 -4.0347 105° East  Level FlightAware Approximate
06:59PM 46.5253 -3.8438 105° East  Level FlightAware Approximate
07:00PM 46.4904 -3.6532 105° East  Level FlightAware Approximate
07:01PM 46.4552 -3.4628 105° East  Level FlightAware Approximate
07:02PM 46.4197 -3.2727 105° East  Level FlightAware Approximate
07:03PM 46.3839 -3.0828 105° East  Level FlightAware Approximate
07:04PM 46.3478 -2.8932 106° East  Level FlightAware Approximate
07:05PM 46.3114 -2.7038 106° East  Level FlightAware Approximate
07:06PM 46.2746 -2.5146 106° East  Level FlightAware Approximate
07:07PM 46.2375 -2.3258 106° East  Level FlightAware Approximate
07:08PM 46.2002 -2.1371 106° East  Level FlightAware Approximate
07:09PM 46.1625 -1.9488 106° East  Level FlightAware Approximate
07:10PM 46.1245 -1.7607 106° East  Level FlightAware Approximate
07:11PM 46.0862 -1.5728 106° East  Level FlightAware Approximate
07:12PM 46.0476 -1.3852 107° East  Level FlightAware Approximate
07:13PM 46.0087 -1.1979 107° East  Level FlightAware Approximate
07:14PM 45.9695 -1.0108 107° East  Level FlightAware Approximate
07:15PM 45.9299 -0.8240 107° East  Level FlightAware Approximate
07:16PM 45.8901 -0.6375 107° East  Level FlightAware Approximate
07:17PM 45.8500 -0.4512 107° East  Level FlightAware Approximate
07:18PM 45.8095 -0.2653 107° East  Level FlightAware Approximate
07:19PM 45.7688 -0.0795 108° East  Level FlightAware Approximate
07:20PM 45.7278 0.1059 108° East  Level FlightAware Approximate
07:21PM 45.6865 0.2911 108° East  Level FlightAware Approximate
07:22PM 45.6448 0.4760 108° East  Level FlightAware Approximate
07:23PM 45.6029 0.6606 108° East  Level FlightAware Approximate
07:24PM 45.5607 0.8450 108° East  Level FlightAware Approximate
07:25PM 45.5181 1.0290 108° East  Level FlightAware Approximate
07:26PM 45.4753 1.2128 108° East  Level FlightAware Approximate
07:27PM 45.4322 1.3963 109° East  Level FlightAware Approximate
07:28PM 45.3888 1.5796 109° East  Level FlightAware Approximate
07:29PM 45.3451 1.7625 109° East  Level FlightAware Approximate
07:30PM 45.3011 1.9452 109° East  Level FlightAware Approximate
07:31PM 45.2568 2.1275 109° East  Level FlightAware Approximate
07:32PM 45.2123 2.3096 109° East  Level FlightAware Approximate
07:33PM 45.1674 2.4914 109° East  Level FlightAware Approximate
07:34PM 45.1222 2.6730 109° East  Level FlightAware Approximate
07:35PM 45.0768 2.8542 110° East  Level FlightAware Approximate
07:36PM 45.0311 3.0351 110° East  Level FlightAware Approximate
07:37PM 44.9851 3.2158 110° East  Level FlightAware Approximate
07:38PM 44.9388 3.3961 110° East  Level FlightAware Approximate
07:39PM 44.8922 3.5762 110° East  Level FlightAware Approximate
07:40PM 44.8453 3.7560 110° East  Level FlightAware Approximate
07:41PM 44.7982 3.9355 110° East  Level FlightAware Approximate
07:42PM 44.7508 4.1147 111° Southeast  Level FlightAware Approximate
07:43PM 44.7031 4.2936 111° Southeast  Level FlightAware Approximate
07:44PM 44.6551 4.4722 111° Southeast  Level FlightAware Approximate
07:45PM 44.6068 4.6505 111° Southeast  Level FlightAware Approximate
07:46PM 44.5583 4.8285 111° Southeast  Level FlightAware Approximate
07:47PM 44.5095 5.0062 111° Southeast  Level FlightAware Approximate
07:48PM 44.4604 5.1836 111° Southeast  Level FlightAware Approximate
07:49PM 44.4111 5.3607 111° Southeast  Level FlightAware Approximate
07:50PM 44.3614 5.5375 112° Southeast  Level FlightAware Approximate
07:51PM 44.3115 5.7140 112° Southeast  Level FlightAware Approximate
07:52PM 44.2614 5.8903 112° Southeast  Level FlightAware Approximate
07:53PM 44.2109 6.0662 112° Southeast  Level FlightAware Approximate
07:54PM 44.1602 6.2418 112° Southeast  Level FlightAware Approximate
07:55PM 44.1092 6.4171 112° Southeast  Level FlightAware Approximate
07:56PM 44.0580 6.5921 112° Southeast  Level FlightAware Approximate
07:57PM 44.0065 6.7668 112° Southeast  Level FlightAware Approximate
07:58PM 43.9547 6.9412 112° Southeast  Level FlightAware Approximate
07:59PM 43.9026 7.1153 113° Southeast  Level FlightAware Approximate
08:00PM 43.8503 7.2891 113° Southeast  Level FlightAware Approximate
08:01PM 43.7977 7.4625 113° Southeast  Level FlightAware Approximate
08:02PM 43.7449 7.6357 113° Southeast  Level FlightAware Approximate
08:03PM 43.6918 7.8086 113° Southeast  Level FlightAware Approximate
08:04PM 43.6384 7.9812 113° Southeast  Level FlightAware Approximate
08:05PM 43.5848 8.1534 113° Southeast  Level FlightAware Approximate
08:06PM 43.5309 8.3254 110° East  Level FlightAware Approximate
08:07PM 43.4836 8.5008 110° East  Level FlightAware Approximate
08:08PM 43.4360 8.6760 111° Southeast  Level FlightAware Approximate
08:09PM 43.3882 8.8509 111° Southeast  Level FlightAware Approximate
08:10PM 43.3401 9.0255 111° Southeast  Level FlightAware Approximate
08:11PM 43.2917 9.1998 111° Southeast  Level FlightAware Approximate
08:12PM 43.2430 9.3738 111° Southeast  Level FlightAware Approximate
08:13PM 43.1941 9.5476 111° Southeast  Level FlightAware Approximate
08:14PM 43.1449 9.7211 111° Southeast  Level FlightAware Approximate
08:15PM 43.0955 9.8943 111° Southeast  Level FlightAware Approximate
08:16PM 43.0458 10.0673 112° Southeast  Level FlightAware Approximate
08:17PM 42.9958 10.2399 112° Southeast  Level FlightAware Approximate
08:18PM 42.9456 10.4123 112° Southeast  Level FlightAware Approximate
08:19PM 42.8951 10.5844 112° Southeast  Level FlightAware Approximate
08:20PM 42.8444 10.7562 112° Southeast  Level FlightAware Approximate
08:21PM 42.7934 10.9277 112° Southeast  Level FlightAware Approximate
08:22PM 42.7422 11.0990 112° Southeast  Level FlightAware Approximate
08:23PM 42.6907 11.2699 112° Southeast  Level FlightAware Approximate
08:24PM 42.6389 11.4406 112° Southeast  Level FlightAware Approximate
08:25PM 42.5869 11.6110 113° Southeast  Level FlightAware Approximate
08:26PM 42.5347 11.7811 113° Southeast  Level FlightAware Approximate
08:27PM 42.4822 11.9509 113° Southeast  Level FlightAware Approximate
08:28PM 42.4294 12.1205 113° Southeast  Level FlightAware Approximate
08:29PM 42.3764 12.2897 113° Southeast  Level FlightAware Approximate
08:30PM 42.3231 12.4587 113° Southeast  Level FlightAware Approximate
08:31PM 42.2696 12.6274 113° Southeast  Level FlightAware Approximate
08:32PM 42.2159 12.7958 113° Southeast  Level FlightAware Approximate
08:33PM 42.1619 12.9639 113° Southeast  Level FlightAware Approximate
08:34PM 42.1076 13.1317 114° Southeast  Level FlightAware Approximate
08:35PM 42.0531 13.2992 114° Southeast  Level FlightAware Approximate
08:36PM 41.9984 13.4665 114° Southeast  Level FlightAware Approximate
08:37PM 41.9434 13.6334 114° Southeast  Level FlightAware Approximate
08:38PM 41.8882 13.8001 114° Southeast  Level FlightAware Approximate
08:39PM 41.8328 13.9665 114° Southeast  Level FlightAware Approximate
08:40PM 41.7771 14.1326 114° Southeast  Level FlightAware Approximate
08:41PM 41.7211 14.2984 114° Southeast  Level FlightAware Approximate
08:42PM 41.6650 14.4639 114° Southeast  Level FlightAware Approximate
08:43PM 41.6086 14.6291 115° Southeast  Level FlightAware Approximate
08:44PM 41.5519 14.7940 115° Southeast  Level FlightAware Approximate
08:45PM 41.4950 14.9586 115° Southeast  Level FlightAware Approximate
08:46PM 41.4379 15.1230 115° Southeast  Level FlightAware Approximate
08:47PM 41.3806 15.2871 115° Southeast  Level FlightAware Approximate
08:48PM 41.3230 15.4508 115° Southeast  Level FlightAware Approximate
08:49PM 41.2652 15.6143 115° Southeast  Level FlightAware Approximate
08:50PM 41.2071 15.7775 115° Southeast  Level FlightAware Approximate
08:51PM 41.1489 15.9404 115° Southeast  Level FlightAware Approximate
08:52PM 41.0904 16.1030 116° Southeast  Level FlightAware Approximate
08:53PM 41.0317 16.2653 116° Southeast  Level FlightAware Approximate
08:54PM 40.9727 16.4274 116° Southeast  Level FlightAware Approximate
08:55PM 40.9135 16.5891 116° Southeast  Level FlightAware Approximate
08:56PM 40.8541 16.7506 116° Southeast  Level FlightAware Approximate
08:57PM 40.7945 16.9118 116° Southeast  Level FlightAware Approximate
08:58PM 40.7346 17.0726 116° Southeast  Level FlightAware Approximate
08:59PM 40.6745 17.2332 116° Southeast  Level FlightAware Approximate
09:00PM 40.6142 17.3935 116° Southeast  Level FlightAware Approximate
09:01PM 40.5537 17.5535 117° Southeast  Level FlightAware Approximate
09:02PM 40.4930 17.7132 117° Southeast  Level FlightAware Approximate
09:03PM 40.4320 17.8727 117° Southeast  Level FlightAware Approximate
09:04PM 40.3708 18.0318 117° Southeast  Level FlightAware Approximate
09:05PM 40.3094 18.1907 117° Southeast  Level FlightAware Approximate
09:06PM 40.2478 18.3492 117° Southeast  Level FlightAware Approximate
09:07PM 40.1860 18.5075 117° Southeast  Level FlightAware Approximate
09:08PM 40.1239 18.6655 117° Southeast  Level FlightAware Approximate
09:09PM 40.0616 18.8232 117° Southeast  Level FlightAware Approximate
09:10PM 39.9992 18.9806 117° Southeast  Level FlightAware Approximate
09:11PM 39.9365 19.1377 118° Southeast  Level FlightAware Approximate
09:12PM 39.8736 19.2945 118° Southeast  Level FlightAware Approximate
09:13PM 39.8105 19.4511 118° Southeast  Level FlightAware Approximate
09:14PM 39.7472 19.6073 118° Southeast  Level FlightAware Approximate
09:15PM 39.6836 19.7633 118° Southeast  Level FlightAware Approximate
09:16PM 39.6199 19.9190 118° Southeast  Level FlightAware Approximate
09:17PM 39.5559 20.0744 118° Southeast  Level FlightAware Approximate
09:18PM 39.4918 20.2295 118° Southeast  Level FlightAware Approximate
09:19PM 39.4274 20.3843 118° Southeast  Level FlightAware Approximate
09:20PM 39.3629 20.5388 118° Southeast  Level FlightAware Approximate
09:21PM 39.2981 20.6931 119° Southeast  Level FlightAware Approximate
09:22PM 39.2331 20.8470 119° Southeast  Level FlightAware Approximate
09:23PM 39.1679 21.0007 119° Southeast  Level FlightAware Approximate
09:24PM 39.1026 21.1541 119° Southeast  Level FlightAware Approximate
09:25PM 39.0370 21.3072 119° Southeast  Level FlightAware Approximate
09:26PM 38.9712 21.4600 119° Southeast  Level FlightAware Approximate
09:27PM 38.9053 21.6126 119° Southeast  Level FlightAware Approximate
09:28PM 38.8391 21.7648 119° Southeast  Level FlightAware Approximate
09:29PM 38.7727 21.9168 119° Southeast  Level FlightAware Approximate
09:30PM 38.7062 22.0685 119° Southeast  Level FlightAware Approximate
09:31PM 38.6394 22.2199 120° Southeast  Level FlightAware Approximate
09:32PM 38.5724 22.3710 120° Southeast  Level FlightAware Approximate
09:33PM 38.5053 22.5218 120° Southeast  Level FlightAware Approximate
09:34PM 38.4380 22.6724 120° Southeast  Level FlightAware Approximate
09:35PM 38.3704 22.8227 120° Southeast  Level FlightAware Approximate
09:36PM 38.3027 22.9727 120° Southeast  Level FlightAware Approximate
09:37PM 38.2348 23.1224 120° Southeast  Level FlightAware Approximate
09:38PM 38.1667 23.2718 120° Southeast  Level FlightAware Approximate
09:39PM 38.0984 23.4210 120° Southeast  Level FlightAware Approximate
09:40PM 38.0299 23.5699 120° Southeast  Level FlightAware Approximate
09:41PM 37.9612 23.7185 120° Southeast  Level FlightAware Approximate
09:42PM 37.8924 23.8668 121° Southeast  Level FlightAware Approximate
09:43PM 37.8233 24.0149 121° Southeast  Level FlightAware Approximate
09:44PM 37.7541 24.1626 121° Southeast  Level FlightAware Approximate
09:45PM 37.6847 24.3101 121° Southeast  Level FlightAware Approximate
09:46PM 37.6151 24.4573 120° Southeast  Level FlightAware Approximate
09:47PM 37.5466 24.6052 120° Southeast  Level FlightAware Approximate
09:48PM 37.4779 24.7529 120° Southeast  Level FlightAware Approximate
09:49PM 37.4091 24.9002 121° Southeast  Level FlightAware Approximate
09:50PM 37.3401 25.0473 121° Southeast  Level FlightAware Approximate
09:51PM 37.2709 25.1942 121° Southeast  Level FlightAware Approximate
09:52PM 37.2015 25.3407 121° Southeast  Level FlightAware Approximate
09:53PM 37.1319 25.4870 121° Southeast  Level FlightAware Approximate
09:54PM 37.0621 25.6331 121° Southeast  Level FlightAware Approximate
09:55PM 36.9922 25.7788 121° Southeast  Level FlightAware Approximate
09:56PM 36.9221 25.9243 121° Southeast  Level FlightAware Approximate
09:57PM 36.8518 26.0695 121° Southeast  Level FlightAware Approximate
09:58PM 36.7813 26.2144 121° Southeast  Level FlightAware Approximate
09:59PM 36.7107 26.3591 121° Southeast  Level FlightAware Approximate
10:00PM 36.6399 26.5035 121° Southeast  Level FlightAware Approximate
10:01PM 36.5689 26.6477 122° Southeast  Level FlightAware Approximate
10:02PM 36.4977 26.7916 122° Southeast  Level FlightAware Approximate
10:03PM 36.4264 26.9352 122° Southeast  Level FlightAware Approximate
10:04PM 36.3549 27.0785 122° Southeast  Level FlightAware Approximate
10:05PM 36.2832 27.2216 122° Southeast  Level FlightAware Approximate
10:06PM 36.2114 27.3645 122° Southeast  Level FlightAware Approximate
10:07PM 36.1394 27.5070 122° Southeast  Level FlightAware Approximate
10:08PM 36.0672 27.6493 122° Southeast  Level FlightAware Approximate
10:09PM 35.9949 27.7914 122° Southeast  Level FlightAware Approximate
10:10PM 35.9223 27.9331 122° Southeast  Level FlightAware Approximate
10:11PM 35.8496 28.0747 122° Southeast  Level FlightAware Approximate
10:12PM 35.7768 28.2159 122° Southeast  Level FlightAware Approximate
10:13PM 35.7038 28.3569 123° Southeast  Level FlightAware Approximate
10:14PM 35.6306 28.4977 123° Southeast  Level FlightAware Approximate
10:15PM 35.5573 28.6382 123° Southeast  Level FlightAware Approximate
10:16PM 35.4837 28.7784 123° Southeast  Level FlightAware Approximate
10:17PM 35.4101 28.9184 123° Southeast  Level FlightAware Approximate
10:18PM 35.3363 29.0581 123° Southeast  Level FlightAware Approximate
10:19PM 35.2623 29.1975 123° Southeast  Level FlightAware Approximate
10:20PM 35.1881 29.3368 123° Southeast  Level FlightAware Approximate
10:21PM 35.1138 29.4757 123° Southeast  Level FlightAware Approximate
10:22PM 35.0393 29.6144 123° Southeast  Level FlightAware Approximate
10:23PM 34.9647 29.7528 123° Southeast  Level FlightAware Approximate
10:24PM 34.8899 29.8910 123° Southeast  Level FlightAware Approximate
10:25PM 34.8150 30.0290 124° Southeast  Level FlightAware Approximate
10:26PM 34.7399 30.1667 124° Southeast  Level FlightAware Approximate
10:27PM 34.6646 30.3041 124° Southeast  Level FlightAware Approximate
10:28PM 34.5892 30.4413 124° Southeast  Level FlightAware Approximate
10:29PM 34.5137 30.5782 124° Southeast  Level FlightAware Approximate
10:30PM 34.4380 30.7149 124° Southeast  Level FlightAware Approximate
10:31PM 34.3621 30.8514 124° Southeast  Level FlightAware Approximate
10:32PM 34.2861 30.9876 124° Southeast  Level FlightAware Approximate
10:33PM 34.2100 31.1235 124° Southeast  Level FlightAware Approximate
10:34PM 34.1337 31.2592 124° Southeast  Level FlightAware Approximate
10:35PM 34.0572 31.3947 124° Southeast  Level FlightAware Approximate
10:36PM 33.9806 31.5299 124° Southeast  Level FlightAware Approximate
10:37PM 33.9038 31.6649 124° Southeast  Level FlightAware Approximate
10:38PM 33.8269 31.7996 125° Southeast  Level FlightAware Approximate
10:39PM 33.7499 31.9341 125° Southeast  Level FlightAware Approximate
10:40PM 33.6727 32.0684 125° Southeast  Level FlightAware Approximate
10:41PM 33.5953 32.2024 125° Southeast  Level FlightAware Approximate
10:42PM 33.5179 32.3362 125° Southeast  Level FlightAware Approximate
10:43PM 33.4403 32.4697 125° Southeast  Level FlightAware Approximate
10:44PM 33.3625 32.6030 125° Southeast  Level FlightAware Approximate
10:45PM 33.2846 32.7360 125° Southeast  Level FlightAware Approximate
10:46PM 33.2065 32.8688 125° Southeast  Level FlightAware Approximate
10:47PM 33.1283 33.0014 160° South  Level FlightAware Approximate
10:48PM 33.0060 33.0548 121° Southeast  Level FlightAware Approximate
10:49PM 32.9365 33.1938 123° Southeast  Level FlightAware Approximate
10:50PM 32.8624 33.3293 118° Southeast  Level FlightAware Approximate
10:51PM 32.7979 33.4711 124° Southeast  Level FlightAware Approximate
10:52PM 32.7226 33.6053 117° Southeast  Level FlightAware Approximate
10:53PM 32.6607 33.7487 125° Southeast  Level FlightAware Approximate
10:54PM 32.5834 33.8812 125° Southeast  Level FlightAware Approximate
10:55PM 32.5060 34.0135 107° East  Level FlightAware Approximate
10:56PM 32.4663 34.1671 133° Southeast  Level FlightAware Approximate
10:57PM 32.3730 34.2835 127° Southeast  Level FlightAware Approximate
10:58PM 32.2908 34.4114 127° Southeast  Level FlightAware Approximate